createdAt,value
2022-12-28T00:01:47.033Z,4.82
2022-12-28T00:04:15.677Z,4.65
2022-12-28T00:06:42.929Z,4.88
2022-12-28T00:09:12.866Z,5.47
2022-12-28T00:11:40.225Z,5.65
2022-12-28T00:14:07.593Z,4.18
2022-12-28T00:16:36.175Z,2.92
2022-12-28T00:19:05.004Z,4.63
2022-12-28T00:21:32.515Z,5.75
2022-12-28T00:24:00.760Z,6.75
2022-12-28T00:26:29.563Z,5.25
2022-12-28T00:29:03.705Z,6.38
2022-12-28T00:31:32.137Z,4.68
2022-12-28T00:33:59.431Z,6.00
2022-12-28T00:37:11.144Z,4.28
2022-12-28T00:39:13.845Z,9.10
2022-12-28T00:41:41.162Z,4.75
2022-12-28T00:44:08.307Z,3.65
2022-12-28T00:46:35.567Z,4.95
2022-12-28T00:49:02.765Z,7.95
2022-12-28T00:51:29.900Z,7.32
2022-12-28T00:53:57.083Z,7.38
2022-12-28T00:56:24.556Z,8.13
2022-12-28T00:58:55.907Z,4.43
2022-12-28T01:01:23.806Z,4.05
2022-12-28T01:03:51.239Z,7.35
2022-12-28T01:06:19.241Z,7.65
2022-12-28T01:08:46.693Z,6.65
2022-12-28T01:11:18.782Z,9.35
2022-12-28T01:13:46.049Z,8.65
2022-12-28T01:16:20.809Z,4.85
2022-12-28T01:18:47.991Z,5.38
2022-12-28T01:21:19.521Z,4.65
2022-12-28T01:23:47.930Z,6.68
2022-12-28T01:26:15.792Z,6.30
2022-12-28T01:28:43.160Z,6.32
2022-12-28T01:31:14.633Z,8.40
2022-12-28T01:33:42.193Z,5.90
2022-12-28T01:36:10.290Z,4.57
2022-12-28T01:38:37.481Z,5.05
2022-12-28T01:41:09.940Z,4.85
2022-12-28T01:43:40.107Z,6.60
2022-12-28T01:46:08.781Z,4.97
2022-12-28T01:48:37.357Z,6.80
2022-12-28T01:51:04.843Z,5.40
2022-12-28T01:53:32.188Z,4.78
2022-12-28T01:55:59.370Z,5.93
2022-12-28T01:58:28.468Z,6.05
2022-12-28T02:00:55.772Z,4.35
2022-12-28T02:03:24.710Z,6.43
2022-12-28T02:05:53.855Z,6.53
2022-12-28T02:08:30.225Z,5.13
2022-12-28T02:10:57.893Z,5.10
2022-12-28T02:13:25.741Z,8.10
2022-12-28T02:15:53.004Z,3.55
2022-12-28T02:18:21.113Z,4.45
2022-12-28T02:21:03.992Z,5.22
2022-12-28T02:23:41.192Z,5.77
2022-12-28T02:26:08.381Z,6.78
2022-12-28T02:28:54.539Z,7.55
2022-12-28T02:31:25.564Z,5.82
2022-12-28T02:34:13.005Z,5.43
2022-12-28T02:36:42.438Z,9.57
2022-12-28T02:39:12.327Z,7.18
2022-12-28T02:41:40.907Z,4.95
2022-12-28T02:44:08.292Z,5.40
2022-12-28T02:46:54.526Z,5.53
2022-12-28T02:49:41.844Z,3.60
2022-12-28T02:52:28.016Z,5.97
2022-12-28T02:55:32.773Z,7.63
2022-12-28T02:58:02.974Z,11.65
2022-12-28T03:00:33.753Z,9.73
2022-12-28T03:03:13.297Z,4.78
2022-12-28T03:06:07.712Z,8.25
2022-12-28T03:08:44.667Z,5.57
2022-12-28T03:11:15.930Z,5.35
2022-12-28T03:13:47.639Z,5.80
2022-12-28T03:16:23.013Z,4.68
2022-12-28T03:19:11.278Z,6.65
2022-12-28T03:21:57.118Z,3.38
2022-12-28T03:24:43.713Z,3.85
2022-12-28T03:27:31.052Z,6.10
2022-12-28T03:30:24.953Z,5.13
2022-12-28T03:32:52.131Z,3.70
2022-12-28T03:35:20.703Z,6.55
2022-12-28T03:37:54.528Z,4.13
2022-12-28T03:40:40.762Z,6.03
2022-12-28T03:43:29.679Z,4.72
2022-12-28T03:46:15.921Z,3.65
2022-12-28T03:48:43.908Z,4.97
2022-12-28T03:51:13.101Z,5.18
2022-12-28T03:53:42.066Z,3.67
2022-12-28T03:56:14.111Z,5.07
2022-12-28T03:58:41.493Z,6.75
2022-12-28T04:01:08.842Z,3.88
2022-12-28T04:03:36.634Z,4.40
2022-12-28T04:06:04.137Z,4.25
2022-12-28T04:08:32.201Z,3.67
2022-12-28T04:11:00.108Z,5.85
2022-12-28T04:13:31.361Z,6.13
2022-12-28T04:15:58.678Z,4.22
2022-12-28T04:18:25.943Z,3.83
2022-12-28T04:20:53.199Z,4.20
2022-12-28T04:23:20.391Z,4.93
2022-12-28T04:25:59.584Z,4.57
2022-12-28T04:28:26.774Z,5.88
2022-12-28T04:30:54.076Z,6.05
2022-12-28T04:33:23.878Z,3.08
2022-12-28T04:35:51.279Z,4.88
2022-12-28T04:38:18.405Z,5.50
2022-12-28T04:40:45.953Z,4.63
2022-12-28T04:43:13.289Z,4.55
2022-12-28T04:45:40.434Z,5.60
2022-12-28T04:48:07.598Z,5.95
2022-12-28T04:50:34.761Z,7.25
2022-12-28T04:53:01.918Z,6.35
2022-12-28T04:55:32.740Z,2.35
2022-12-28T04:58:00.835Z,4.82
2022-12-28T05:00:28.082Z,11.00
2022-12-28T05:02:55.313Z,6.55
2022-12-28T05:05:22.451Z,6.18
2022-12-28T05:07:49.591Z,4.63
2022-12-28T05:10:16.770Z,4.82
2022-12-28T05:12:44.000Z,3.90
2022-12-28T05:15:11.498Z,3.00
2022-12-28T05:17:38.676Z,3.65
2022-12-28T05:20:06.021Z,2.90
2022-12-28T05:22:37.752Z,3.78
2022-12-28T05:25:08.134Z,4.57
2022-12-28T05:27:35.315Z,4.20
2022-12-28T05:30:02.479Z,6.80
2022-12-28T05:32:29.786Z,4.80
2022-12-28T05:34:56.912Z,3.40
2022-12-28T05:37:24.054Z,5.32
2022-12-28T05:39:51.190Z,3.38
2022-12-28T05:42:18.720Z,6.05
2022-12-28T05:44:45.863Z,3.55
2022-12-28T05:47:13.880Z,3.78
2022-12-28T05:49:41.045Z,5.38
2022-12-28T05:52:08.286Z,3.58
2022-12-28T05:54:35.441Z,6.80
2022-12-28T05:57:02.589Z,3.40
2022-12-28T05:59:29.763Z,3.17
2022-12-28T06:01:57.077Z,5.68
2022-12-28T06:04:25.241Z,5.53
2022-12-28T06:06:54.283Z,3.65
2022-12-28T06:09:21.530Z,5.05
2022-12-28T06:11:48.664Z,6.22
2022-12-28T06:14:15.847Z,4.60
2022-12-28T06:16:43.539Z,4.57
2022-12-28T06:19:12.416Z,3.42
2022-12-28T06:21:40.392Z,6.35
2022-12-28T06:24:08.080Z,8.07
2022-12-28T06:26:36.564Z,2.97
2022-12-28T06:29:04.119Z,2.90
2022-12-28T06:31:32.864Z,2.70
2022-12-28T06:34:01.043Z,3.35
2022-12-28T06:36:29.664Z,2.72
2022-12-28T06:38:58.265Z,4.68
2022-12-28T06:41:25.637Z,4.50
2022-12-28T06:43:52.993Z,2.47
2022-12-28T06:46:21.108Z,4.15
2022-12-28T06:48:48.640Z,3.55
2022-12-28T06:51:16.980Z,5.40
2022-12-28T06:53:44.794Z,5.57
2022-12-28T06:56:16.684Z,3.58
2022-12-28T06:58:44.175Z,5.88
2022-12-28T07:01:14.013Z,3.63
2022-12-28T07:03:41.530Z,4.00
2022-12-28T07:06:08.813Z,6.68
2022-12-28T07:08:36.593Z,4.43
2022-12-28T07:11:05.070Z,3.55
2022-12-28T07:13:32.568Z,3.97
2022-12-28T07:16:02.471Z,4.18
2022-12-28T07:18:29.818Z,6.47
2022-12-28T07:21:01.351Z,3.50
2022-12-28T07:23:30.276Z,4.53
2022-12-28T07:26:05.184Z,4.78
2022-12-28T07:28:35.029Z,3.90
2022-12-28T07:31:05.851Z,2.60
2022-12-28T07:33:33.166Z,2.80
2022-12-28T07:36:00.372Z,2.80
2022-12-28T07:38:27.523Z,2.60
2022-12-28T07:41:01.410Z,2.50
2022-12-28T07:43:30.107Z,6.53
2022-12-28T07:46:01.283Z,5.72
2022-12-28T07:48:29.897Z,5.55
2022-12-28T07:50:57.147Z,5.68
2022-12-28T07:53:24.470Z,4.03
2022-12-28T07:55:58.374Z,5.13
2022-12-28T07:58:25.659Z,5.10
2022-12-28T08:00:53.570Z,3.03
2022-12-28T08:03:20.883Z,3.90
2022-12-28T08:05:48.089Z,3.13
2022-12-28T08:08:15.239Z,3.42
2022-12-28T08:10:42.482Z,3.40
2022-12-28T08:13:09.655Z,4.70
2022-12-28T08:15:36.857Z,4.32
2022-12-28T08:18:04.105Z,2.78
2022-12-28T08:20:32.082Z,7.40
2022-12-28T08:22:59.333Z,5.60
2022-12-28T08:25:26.490Z,2.42
2022-12-28T08:27:53.768Z,2.65
2022-12-28T08:30:20.961Z,6.22
2022-12-28T08:32:48.146Z,3.58
2022-12-28T08:35:15.304Z,4.13
2022-12-28T08:37:42.564Z,2.85
2022-12-28T08:40:10.105Z,4.20
2022-12-28T08:42:37.381Z,1.75
2022-12-28T08:45:04.765Z,3.35
2022-12-28T08:47:31.926Z,2.15
2022-12-28T08:49:59.079Z,7.55
2022-12-28T08:52:26.345Z,3.65
2022-12-28T08:54:53.582Z,5.57
2022-12-28T08:57:20.772Z,6.68
2022-12-28T08:59:48.091Z,2.58
2022-12-28T09:02:15.547Z,2.92
2022-12-28T09:04:42.717Z,2.00
2022-12-28T09:07:09.873Z,2.85
2022-12-28T09:09:37.145Z,3.08
2022-12-28T09:12:04.451Z,1.58
2022-12-28T09:14:31.712Z,2.17
2022-12-28T09:16:59.022Z,2.22
2022-12-28T09:19:26.230Z,1.60
2022-12-28T09:21:55.255Z,2.78
2022-12-28T09:24:23.077Z,2.53
2022-12-28T09:26:52.620Z,2.25
2022-12-28T09:29:20.010Z,2.38
2022-12-28T09:31:47.328Z,1.80
2022-12-28T09:37:02.217Z,2.78
2022-12-28T09:39:29.674Z,1.55
2022-12-28T09:42:15.672Z,2.90
2022-12-28T09:44:51.188Z,1.85
2022-12-28T09:47:21.336Z,3.72
2022-12-28T09:49:48.488Z,2.60
2022-12-28T09:52:15.608Z,1.70
2022-12-28T09:54:42.900Z,1.40
2022-12-28T09:57:17.146Z,3.42
2022-12-28T09:59:44.910Z,1.70
2022-12-28T10:02:19.272Z,3.42
2022-12-28T10:04:49.514Z,3.45
2022-12-28T10:07:16.839Z,1.98
2022-12-28T10:09:44.141Z,1.50
2022-12-28T10:12:37.744Z,2.30
2022-12-28T10:15:07.110Z,8.65
2022-12-28T10:17:34.504Z,6.68
2022-12-28T10:20:01.914Z,2.03
2022-12-28T10:22:34.368Z,6.13
2022-12-28T10:25:01.585Z,4.00
2022-12-28T10:27:32.382Z,3.03
2022-12-28T10:30:02.035Z,3.13
2022-12-28T10:32:48.555Z,3.05
2022-12-28T10:35:23.133Z,2.00
2022-12-28T10:37:50.367Z,1.40
2022-12-28T10:40:26.528Z,2.92
2022-12-28T10:42:54.832Z,2.15
2022-12-28T10:45:21.929Z,3.55
2022-12-28T10:47:51.107Z,2.28
2022-12-28T10:50:38.018Z,4.82
2022-12-28T10:53:05.454Z,1.58
2022-12-28T10:55:34.300Z,1.27
2022-12-28T10:58:33.037Z,1.40
2022-12-28T11:01:06.848Z,1.73
2022-12-28T11:03:35.888Z,2.60
2022-12-28T11:06:09.976Z,3.08
2022-12-28T11:08:37.883Z,1.92
2022-12-28T11:11:05.221Z,3.60
2022-12-28T11:13:32.493Z,3.38
2022-12-28T11:16:00.333Z,3.03
2022-12-28T11:18:29.821Z,1.63
2022-12-28T11:21:00.414Z,2.15
2022-12-28T11:23:31.801Z,1.55
2022-12-28T11:25:59.659Z,2.28
2022-12-28T11:28:29.461Z,2.88
2022-12-28T11:30:59.046Z,1.67
2022-12-28T11:33:27.736Z,1.50
2022-12-28T11:35:59.602Z,1.10
2022-12-28T11:38:48.631Z,2.25
2022-12-28T11:41:33.982Z,1.25
2022-12-28T11:44:02.920Z,1.10
2022-12-28T11:46:36.388Z,2.97
2022-12-28T11:49:22.450Z,1.85
2022-12-28T11:52:09.554Z,2.05
2022-12-28T11:54:38.545Z,0.98
2022-12-28T11:57:05.731Z,1.98
2022-12-28T11:59:33.947Z,3.42
2022-12-28T12:02:02.490Z,2.17
2022-12-28T12:04:32.707Z,2.35
2022-12-28T12:07:01.398Z,3.00
2022-12-28T12:09:33.771Z,3.22
2022-12-28T12:12:03.777Z,1.90
2022-12-28T12:14:33.707Z,3.72
2022-12-28T12:17:03.670Z,2.00
2022-12-28T12:19:32.883Z,2.67
2022-12-28T12:22:07.432Z,3.30
2022-12-28T12:24:38.416Z,2.45
2022-12-28T12:27:13.701Z,1.67
2022-12-28T12:29:42.673Z,4.00
2022-12-28T12:32:18.849Z,1.33
2022-12-28T12:34:47.828Z,5.00
2022-12-28T12:37:34.068Z,1.67
2022-12-28T12:40:09.338Z,2.30
2022-12-28T12:42:55.681Z,3.33
2022-12-28T12:45:48.893Z,4.70
2022-12-28T12:48:45.496Z,1.60
2022-12-28T12:51:38.672Z,2.45
2022-12-28T12:54:24.614Z,4.05
2022-12-28T12:56:57.595Z,1.55
2022-12-28T12:59:43.518Z,2.60
2022-12-28T13:02:10.780Z,1.65
2022-12-28T13:04:40.616Z,2.97
2022-12-28T13:07:15.851Z,3.50
2022-12-28T13:09:43.451Z,3.15
2022-12-28T13:12:14.972Z,5.97
2022-12-28T13:14:44.855Z,1.88
2022-12-28T13:17:17.911Z,2.35
2022-12-28T13:19:45.249Z,1.30
2022-12-28T13:22:34.848Z,1.42
2022-12-28T13:25:02.004Z,3.00
2022-12-28T13:27:34.755Z,2.80
2022-12-28T13:30:02.950Z,3.97
2022-12-28T13:32:37.688Z,2.47
2022-12-28T13:35:17.213Z,2.25
2022-12-28T13:37:44.440Z,4.97
2022-12-28T13:40:12.202Z,1.92
2022-12-28T13:43:12.161Z,2.92
2022-12-28T13:45:39.311Z,2.55
2022-12-28T13:48:08.315Z,3.20
2022-12-28T13:50:37.609Z,2.85
2022-12-28T13:53:10.346Z,2.85
2022-12-28T13:55:40.786Z,1.67
2022-12-28T13:58:10.263Z,2.65
2022-12-28T14:00:37.541Z,2.92
2022-12-28T14:03:07.303Z,3.22
2022-12-28T14:05:34.452Z,1.90
2022-12-28T14:08:02.704Z,2.53
2022-12-28T14:10:30.346Z,5.47
2022-12-28T14:13:00.191Z,1.35
2022-12-28T14:15:27.596Z,4.45
2022-12-28T14:17:55.115Z,5.45
2022-12-28T14:20:22.362Z,4.55
2022-12-28T14:22:49.575Z,1.70
2022-12-28T14:25:18.186Z,2.75
2022-12-28T14:27:47.421Z,4.68
2022-12-28T14:30:22.584Z,5.00
2022-12-28T14:32:49.905Z,2.30
2022-12-28T14:35:19.313Z,2.60
2022-12-28T14:37:46.945Z,3.40
2022-12-28T14:40:33.842Z,2.05
2022-12-28T14:43:04.978Z,3.13
2022-12-28T14:46:05.211Z,2.30
2022-12-28T14:48:26.351Z,2.15
2022-12-28T14:51:01.325Z,3.42
2022-12-28T14:53:29.070Z,2.45
2022-12-28T14:56:17.730Z,2.70
2022-12-28T14:58:51.199Z,6.35
2022-12-28T15:01:19.275Z,3.13
2022-12-28T15:04:00.337Z,5.15
2022-12-28T15:06:28.252Z,4.13
2022-12-28T15:08:56.416Z,3.53
2022-12-28T15:11:24.652Z,3.00
2022-12-28T15:13:51.981Z,2.15
2022-12-28T15:16:20.475Z,2.55
2022-12-28T15:18:47.833Z,3.67
2022-12-28T15:21:17.395Z,1.67
2022-12-28T15:23:45.274Z,2.40
2022-12-28T15:26:13.281Z,5.35
2022-12-28T15:28:40.753Z,3.15
2022-12-28T15:31:08.977Z,2.78
2022-12-28T15:33:36.493Z,2.50
2022-12-28T15:36:12.123Z,3.47
2022-12-28T15:38:42.301Z,2.47
2022-12-28T15:41:29.439Z,3.45
2022-12-28T15:43:56.588Z,3.08
2022-12-28T15:46:23.881Z,2.03
2022-12-28T15:48:51.387Z,4.10
2022-12-28T15:51:18.501Z,4.85
2022-12-28T15:53:45.677Z,3.38
2022-12-28T15:56:29.473Z,1.70
2022-12-28T15:58:57.693Z,2.33
2022-12-28T16:01:25.704Z,3.65
2022-12-28T16:03:53.626Z,2.00
2022-12-28T16:06:21.189Z,1.77
2022-12-28T16:08:48.737Z,3.33
2022-12-28T16:11:17.432Z,2.78
2022-12-28T16:13:44.926Z,1.75
2022-12-28T16:16:13.427Z,3.00
2022-12-28T16:18:40.961Z,3.10
2022-12-28T16:21:09.571Z,4.40
2022-12-28T16:23:38.035Z,1.83
2022-12-28T16:26:05.356Z,2.35
2022-12-28T16:28:32.498Z,3.92
2022-12-28T16:30:59.626Z,3.63
2022-12-28T16:33:26.845Z,2.05
2022-12-28T16:35:59.360Z,1.90
2022-12-28T16:38:28.645Z,2.78
2022-12-28T16:40:56.989Z,2.63
2022-12-28T16:43:24.597Z,1.52
2022-12-28T16:45:51.858Z,1.30
2022-12-28T16:48:19.105Z,3.40
2022-12-28T16:50:46.320Z,4.50
2022-12-28T16:53:13.453Z,2.22
2022-12-28T16:55:41.886Z,1.48
2022-12-28T16:58:10.132Z,2.45
2022-12-28T17:00:37.279Z,4.78
2022-12-28T17:03:04.500Z,1.48
2022-12-28T17:05:35.681Z,4.40
2022-12-28T17:08:03.229Z,4.72
2022-12-28T17:10:30.768Z,2.40
2022-12-28T17:12:57.961Z,2.15
2022-12-28T17:15:25.383Z,2.85
2022-12-28T17:17:52.544Z,2.58
2022-12-28T17:20:19.735Z,3.83
2022-12-28T17:22:47.037Z,1.35
2022-12-28T17:25:14.762Z,1.83
2022-12-28T17:27:41.937Z,1.58
2022-12-28T17:30:11.689Z,2.00
2022-12-28T17:32:39.264Z,1.17
2022-12-28T17:35:06.844Z,4.05
2022-12-28T17:37:33.990Z,2.75
2022-12-28T17:40:01.182Z,2.08
2022-12-28T17:42:28.293Z,4.88
2022-12-28T17:44:55.522Z,1.80
2022-12-28T17:47:22.699Z,3.05
2022-12-28T17:49:49.969Z,1.35
2022-12-28T17:52:21.594Z,1.70
2022-12-28T17:54:49.366Z,3.65
2022-12-28T17:57:16.790Z,2.25
2022-12-28T17:59:44.132Z,3.30
2022-12-28T18:02:12.942Z,1.98
2022-12-28T18:04:40.985Z,3.70
2022-12-28T18:07:08.711Z,4.20
2022-12-28T18:09:35.895Z,1.52
2022-12-28T18:12:03.178Z,1.25
2022-12-28T18:14:30.596Z,1.98
2022-12-28T18:16:57.875Z,1.10
2022-12-28T18:19:25.152Z,1.77
2022-12-28T18:21:52.350Z,1.50
2022-12-28T18:24:21.120Z,2.40
2022-12-28T18:26:48.658Z,1.88
2022-12-28T18:29:16.257Z,2.63
2022-12-28T18:31:43.441Z,3.35
2022-12-28T18:34:11.325Z,2.90
2022-12-28T18:36:38.478Z,3.55
2022-12-28T18:39:05.645Z,4.57
2022-12-28T18:41:34.377Z,3.28
2022-12-28T18:44:03.004Z,1.52
2022-12-28T18:46:30.440Z,1.38
2022-12-28T18:48:57.961Z,2.97
2022-12-28T18:51:25.513Z,3.15
2022-12-28T18:53:52.757Z,1.85
2022-12-28T18:56:20.999Z,3.80
2022-12-28T18:58:52.512Z,1.92
2022-12-28T19:04:10.073Z,1.50
2022-12-28T19:06:37.826Z,2.78
2022-12-28T19:09:06.247Z,2.13
2022-12-28T19:11:33.513Z,1.27
2022-12-28T19:14:02.123Z,2.30
2022-12-28T19:16:31.856Z,1.20
2022-12-28T19:18:59.441Z,2.45
2022-12-28T19:21:26.798Z,1.20
2022-12-28T19:23:55.152Z,2.03
2022-12-28T19:26:22.955Z,3.75
2022-12-28T19:28:50.231Z,3.85
2022-12-28T19:31:17.510Z,2.75
2022-12-28T19:33:44.701Z,1.45
2022-12-28T19:36:12.748Z,1.23
2022-12-28T19:38:39.970Z,1.33
2022-12-28T19:41:08.667Z,1.58
2022-12-28T19:43:36.045Z,2.25
2022-12-28T19:46:09.023Z,1.48
2022-12-28T19:48:36.950Z,1.13
2022-12-28T19:51:04.257Z,2.95
2022-12-28T19:53:31.440Z,1.75
2022-12-28T19:56:05.941Z,1.42
2022-12-28T19:58:34.086Z,2.40
2022-12-28T20:01:08.634Z,2.15
2022-12-28T20:03:36.115Z,1.73
2022-12-28T20:06:05.681Z,2.65
2022-12-28T20:08:32.798Z,4.05
2022-12-28T20:10:59.991Z,1.98
2022-12-28T20:13:27.155Z,1.73
2022-12-28T20:15:54.525Z,1.65
2022-12-28T20:18:21.700Z,1.48
2022-12-28T20:21:17.989Z,1.50
2022-12-28T20:23:36.937Z,2.25
2022-12-28T20:26:04.128Z,1.10
2022-12-28T20:28:34.577Z,2.35
2022-12-28T20:31:06.242Z,1.17
2022-12-28T20:33:34.058Z,2.15
2022-12-28T20:36:02.470Z,4.88
2022-12-28T20:38:29.896Z,1.08
2022-12-28T20:41:07.602Z,1.35
2022-12-28T20:43:34.957Z,1.67
2022-12-28T20:46:02.249Z,1.65
2022-12-28T20:48:29.887Z,2.17
2022-12-28T20:50:57.957Z,2.15
2022-12-28T20:53:25.338Z,3.22
2022-12-28T20:55:52.596Z,2.25
2022-12-28T20:58:20.631Z,2.15
2022-12-28T21:00:48.114Z,1.80
2022-12-28T21:03:15.405Z,3.95
2022-12-28T21:05:42.614Z,3.78
2022-12-28T21:08:10.476Z,2.17
2022-12-28T21:10:37.598Z,2.05
2022-12-28T21:13:04.758Z,1.70
2022-12-28T21:15:31.992Z,1.05
2022-12-28T21:17:59.385Z,2.13
2022-12-28T21:20:26.745Z,2.85
2022-12-28T21:22:54.343Z,2.55
2022-12-28T21:25:21.503Z,1.17
2022-12-28T21:27:48.685Z,2.08
2022-12-28T21:30:15.852Z,1.25
2022-12-28T21:32:44.009Z,3.83
2022-12-28T21:35:11.167Z,2.28
2022-12-28T21:37:38.326Z,1.20
2022-12-28T21:40:07.047Z,2.15
2022-12-28T21:42:34.893Z,1.77
2022-12-28T21:45:02.187Z,0.88
2022-12-28T21:47:29.612Z,2.97
2022-12-28T21:49:56.763Z,1.73
2022-12-28T21:52:23.997Z,1.63
2022-12-28T21:54:51.156Z,1.45
2022-12-28T21:57:18.304Z,1.20
2022-12-28T21:59:45.469Z,3.17
2022-12-28T22:02:35.439Z,1.88
2022-12-28T22:05:21.493Z,1.50
2022-12-28T22:07:48.957Z,1.45
2022-12-28T22:10:34.799Z,1.98
2022-12-28T22:13:01.928Z,3.50
2022-12-28T22:15:47.580Z,1.05
2022-12-28T22:19:00.770Z,1.58
2022-12-28T22:21:09.289Z,1.15
2022-12-28T22:23:36.419Z,1.30
2022-12-28T22:26:03.789Z,1.40
2022-12-28T22:28:30.930Z,1.55
2022-12-28T22:30:58.117Z,1.60
2022-12-28T22:33:25.342Z,1.23
2022-12-28T22:35:52.539Z,1.40
2022-12-28T22:38:19.655Z,1.15
2022-12-28T22:40:46.788Z,1.42
2022-12-28T22:43:13.987Z,1.05
2022-12-28T22:45:41.233Z,1.63
2022-12-28T22:48:08.364Z,2.13
2022-12-28T22:50:41.330Z,1.20
2022-12-28T22:53:10.955Z,0.98
2022-12-28T22:55:38.151Z,0.95
2022-12-28T22:58:05.317Z,1.42
2022-12-28T23:00:32.569Z,1.20
2022-12-28T23:02:59.739Z,1.25
2022-12-28T23:05:26.883Z,1.30
2022-12-28T23:07:54.098Z,1.23
2022-12-28T23:10:21.904Z,2.28
2022-12-28T23:12:49.230Z,2.80
2022-12-28T23:15:18.441Z,4.03
2022-12-28T23:17:46.550Z,1.40
2022-12-28T23:20:32.440Z,1.20
2022-12-28T23:23:18.019Z,1.27
2022-12-28T23:26:03.702Z,1.50
2022-12-28T23:28:30.889Z,2.30
2022-12-28T23:30:58.829Z,1.70
2022-12-28T23:33:26.040Z,2.58
2022-12-28T23:35:53.477Z,1.45
2022-12-28T23:38:20.613Z,4.43
2022-12-28T23:41:07.781Z,5.13
2022-12-28T23:43:34.908Z,1.42
2022-12-28T23:46:04.584Z,0.93
2022-12-28T23:48:31.806Z,1.38
2022-12-28T23:51:08.103Z,2.00
2022-12-28T23:53:35.774Z,1.33
2022-12-28T23:56:02.973Z,1.30
2022-12-28T23:58:30.188Z,1.52
